Med Cerkezkoy — TCA4407 — position and weather

sailwx.info

Track history (hours):
 
Tides and Currents Weather Stations Pressure Air Temp Water Temp Dewpoint Dewpoint Depression Visibility Wind Speed Wind Dir Waves Ship Positions

Med Cerkezkoy

Last reported at 2018-Aug-18 22:29 UTC. Time now 2018-Aug-19 22:52 UTC.
Position N 39°35' E 025°48'.

Length 140 m; draft 7.1 m.

Type: Cargo ship. MMSI: 271044659.

Date/timePositionNaut miles runAvg speedWind from/ knotsBaromVisibWave heightAir tempDewpointWater temp
2018-Aug-18 22:29N 39°35' E 025°48'  
2018-Aug-16 08:31N 37°44' E 024°19'1310.9
2018-Aug-16 07:22N 37°36' E 024°06'511.5
2018-Aug-16 06:57N 37°36' E 023°60'511.7
2018-Aug-16 06:30N 37°37' E 023°53'611.5
2018-Aug-16 06:00N 37°38' E 023°46'510.6
2018-Aug-16 05:30N 37°41' E 023°41'611.4
2018-Aug-16 05:00N 37°46' E 023°38'511.0
2018-Aug-16 04:30N 37°51' E 023°34'1 2.7
2018-Aug-16 03:58N 37°52' E 023°33'0 0.0
2018-Aug-16 03:28N 37°52' E 023°33'0 0.0
2018-Aug-16 02:58N 37°52' E 023°33'0 0.0
2018-Aug-16 02:28N 37°52' E 023°33'0 0.0
2018-Aug-16 01:58N 37°52' E 023°33'0 0.0
2018-Aug-16 01:28N 37°52' E 023°33'0 0.0
2018-Aug-16 00:58N 37°52' E 023°33'0 0.0
2018-Aug-16 00:28N 37°52' E 023°33'0 0.0
2018-Aug-15 23:58N 37°52' E 023°33'0 0.0
2018-Aug-15 23:28N 37°52' E 023°33'0 0.0
2018-Aug-15 22:58N 37°52' E 023°33'0 0.0
2018-Aug-15 22:28N 37°52' E 023°33'0 0.0
2018-Aug-15 21:58N 37°52' E 023°33'0 0.0
2018-Aug-15 21:28N 37°52' E 023°33'0 0.1
2018-Aug-15 20:58N 37°52' E 023°33'0 0.2
2018-Aug-15 20:28N 37°53' E 023°33'0 0.0
2018-Aug-15 19:58N 37°53' E 023°33'0 0.1
2018-Aug-15 19:28N 37°53' E 023°33'0 0.1
2018-Aug-15 18:58N 37°53' E 023°33'0 0.0
2018-Aug-15 18:28N 37°53' E 023°33'0 0.0
2018-Aug-15 17:58N 37°53' E 023°33'0 0.0
2018-Aug-15 17:28N 37°53' E 023°33'0 0.0
2018-Aug-15 16:58N 37°53' E 023°33'0 0.0
2018-Aug-15 16:28N 37°53' E 023°33'0 0.0
2018-Aug-15 15:58N 37°53' E 023°33'0 0.0
2018-Aug-15 15:28N 37°53' E 023°33'0 0.0
2018-Aug-15 14:58N 37°53' E 023°33'0 0.0
2018-Aug-15 14:28N 37°53' E 023°33'0 0.1
2018-Aug-15 13:58N 37°53' E 023°33'1 1.3
2018-Aug-15 13:31N 37°52' E 023°34'4 8.2
2018-Aug-15 13:00N 37°51' E 023°39'611.2
2018-Aug-15 12:30N 37°46' E 023°42'611.0
2018-Aug-15 12:00N 37°41' E 023°45'611.2
2018-Aug-15 11:30N 37°36' E 023°48'4710.3
2018-Aug-15 06:56N 37°21' E 024°45'4 9.8
2018-Aug-15 06:30N 37°19' E 024°49'5 9.6
2018-Aug-15 06:00N 37°17' E 024°55'611.2
2018-Aug-15 05:30N 37°17' E 025°02'510.3
2018-Aug-15 05:00N 37°17' E 025°08'510.4
2018-Aug-15 04:30N 37°17' E 025°15'510.3
2018-Aug-15 04:00N 37°17' E 025°21'510.2
2018-Aug-15 03:30N 37°16' E 025°28'5 9.8
2018-Aug-15 03:00N 37°16' E 025°34'5 9.8
2018-Aug-15 02:31N 37°16' E 025°40'5 9.5
2018-Aug-15 02:00N 37°14' E 025°46'  
2018-Aug-12 14:22N 36°45' E 034°39'157 3.9
2018-Aug-10 22:16N 34°13' E 033°52'310.9
2018-Aug-10 22:01N 34°10' E 033°50'610.9
2018-Aug-10 21:29N 34°05' E 033°47'610.7
2018-Aug-10 20:57N 34°00' E 033°43'510.4
2018-Aug-10 20:30N 33°56' E 033°41'910.3
2018-Aug-10 19:39N 33°49' E 033°35'1410.3
2018-Aug-10 18:14N 33°37' E 033°24'210.2
2018-Aug-10 18:00N 33°35' E 033°23'5610.1
2018-Aug-10 12:24N 32°48' E 032°45'2410.3
2018-Aug-10 10:04N 32°28' E 032°29'110.3
2018-Aug-10 10:00N 32°28' E 032°29'86 2.5
2018-Aug-08 23:45N 32°38' E 030°48'312.1
2018-Aug-08 23:30N 32°41' E 030°46'  
Track history (hours):
 
Tides and Currents Weather Stations Pressure Air Temp Water Temp Dewpoint Dewpoint Depression Visibility Wind Speed Wind Dir Waves Ship Positions

Med Cerkezkoy

Last reported at 2018-Aug-18 22:29 UTC. Time now 2018-Aug-19 22:52 UTC.
Position N 39°35' E 025°48'.

Length 140 m; draft 7.1 m.

Type: Cargo ship. MMSI: 271044659.

Date/timePositionNaut miles runAvg speedWind from/ knotsBaromVisibWave heightAir tempDewpointWater temp
2018-Aug-18 22:29N 39°35' E 025°48'  
2018-Aug-16 08:31N 37°44' E 024°19'1310.9
2018-Aug-16 07:22N 37°36' E 024°06'511.5
2018-Aug-16 06:57N 37°36' E 023°60'511.7
2018-Aug-16 06:30N 37°37' E 023°53'611.5
2018-Aug-16 06:00N 37°38' E 023°46'510.6
2018-Aug-16 05:30N 37°41' E 023°41'611.4
2018-Aug-16 05:00N 37°46' E 023°38'511.0
2018-Aug-16 04:30N 37°51' E 023°34'1 2.7
2018-Aug-16 03:58N 37°52' E 023°33'0 0.0
2018-Aug-16 03:28N 37°52' E 023°33'0 0.0
2018-Aug-16 02:58N 37°52' E 023°33'0 0.0
2018-Aug-16 02:28N 37°52' E 023°33'0 0.0
2018-Aug-16 01:58N 37°52' E 023°33'0 0.0
2018-Aug-16 01:28N 37°52' E 023°33'0 0.0
2018-Aug-16 00:58N 37°52' E 023°33'0 0.0
2018-Aug-16 00:28N 37°52' E 023°33'0 0.0
2018-Aug-15 23:58N 37°52' E 023°33'0 0.0
2018-Aug-15 23:28N 37°52' E 023°33'0 0.0
2018-Aug-15 22:58N 37°52' E 023°33'0 0.0
2018-Aug-15 22:28N 37°52' E 023°33'0 0.0
2018-Aug-15 21:58N 37°52' E 023°33'0 0.0
2018-Aug-15 21:28N 37°52' E 023°33'0 0.1
2018-Aug-15 20:58N 37°52' E 023°33'0 0.2
2018-Aug-15 20:28N 37°53' E 023°33'0 0.0
2018-Aug-15 19:58N 37°53' E 023°33'0 0.1
2018-Aug-15 19:28N 37°53' E 023°33'0 0.1
2018-Aug-15 18:58N 37°53' E 023°33'0 0.0
2018-Aug-15 18:28N 37°53' E 023°33'0 0.0
2018-Aug-15 17:58N 37°53' E 023°33'0 0.0
2018-Aug-15 17:28N 37°53' E 023°33'0 0.0
2018-Aug-15 16:58N 37°53' E 023°33'0 0.0
2018-Aug-15 16:28N 37°53' E 023°33'0 0.0
2018-Aug-15 15:58N 37°53' E 023°33'0 0.0
2018-Aug-15 15:28N 37°53' E 023°33'0 0.0
2018-Aug-15 14:58N 37°53' E 023°33'0 0.0
2018-Aug-15 14:28N 37°53' E 023°33'0 0.1
2018-Aug-15 13:58N 37°53' E 023°33'1 1.3
2018-Aug-15 13:31N 37°52' E 023°34'4 8.2
2018-Aug-15 13:00N 37°51' E 023°39'611.2
2018-Aug-15 12:30N 37°46' E 023°42'611.0
2018-Aug-15 12:00N 37°41' E 023°45'611.2
2018-Aug-15 11:30N 37°36' E 023°48'4710.3
2018-Aug-15 06:56N 37°21' E 024°45'4 9.8
2018-Aug-15 06:30N 37°19' E 024°49'5 9.6
2018-Aug-15 06:00N 37°17' E 024°55'611.2
2018-Aug-15 05:30N 37°17' E 025°02'510.3
2018-Aug-15 05:00N 37°17' E 025°08'510.4
2018-Aug-15 04:30N 37°17' E 025°15'510.3
2018-Aug-15 04:00N 37°17' E 025°21'510.2
2018-Aug-15 03:30N 37°16' E 025°28'5 9.8
2018-Aug-15 03:00N 37°16' E 025°34'5 9.8
2018-Aug-15 02:31N 37°16' E 025°40'5 9.5
2018-Aug-15 02:00N 37°14' E 025°46'  
2018-Aug-12 14:22N 36°45' E 034°39'157 3.9
2018-Aug-10 22:16N 34°13' E 033°52'310.9
2018-Aug-10 22:01N 34°10' E 033°50'610.9
2018-Aug-10 21:29N 34°05' E 033°47'610.7
2018-Aug-10 20:57N 34°00' E 033°43'510.4
2018-Aug-10 20:30N 33°56' E 033°41'910.3
2018-Aug-10 19:39N 33°49' E 033°35'1410.3
2018-Aug-10 18:14N 33°37' E 033°24'210.2
2018-Aug-10 18:00N 33°35' E 033°23'5610.1
2018-Aug-10 12:24N 32°48' E 032°45'2410.3
2018-Aug-10 10:04N 32°28' E 032°29'110.3
2018-Aug-10 10:00N 32°28' E 032°29'86 2.5
2018-Aug-08 23:45N 32°38' E 030°48'312.1
2018-Aug-08 23:30N 32°41' E 030°46'  

Dump ship's entire track history